Terminal Aerodrome Forecast
Issued by NWS

Home | Current Version | Previous Version | Text Only | Print | Product List | Glossary On
Versions: 1 2 3 4 5 6 7 8 9 10 11 12 13 14 15 16 17 18 19 20 21 22 23 24 25 26 27 28 29 30 31 32 33 34 35 36
000
FTUS41 KRNK 202341
TAFLWB
TAF
KLWB 202341Z 2100/2124 VRB02KT P6SM BKN035
      TEMPO 2100/2103 BKN025
     FM210300 00000KT 6SM BR BKN025
     FM211000 00000KT 3/4SM BR BKN008
     FM211200 VRB02KT 1/2SM FG BKN009
     FM211300 VRB02KT 1SM BR BKN009
     FM211500 VRB04KT P6SM BKN035=

USA.gov is the U.S. government's official web portal to all federal, state and local government web resources and services.